LEVX/VGO METAR and TAF weather

Enter ICAO airport designator
Station Type Date Time Source
LEVX METAR 2019/08/25 18:00 UTC NOAA

LEVX 251800Z 04004KT 010V100 CAVOK 25/19 Q1014 NOSIG


Station Type Date Time Source
LEVX Decoded METAR 2019/08/25 18:00 UTC NOAA

Station name not available
Aug 25, 2019 - 02:00 PM EDT / 2019.08.25 1800 UTC
Wind: from the NE (040 degrees) at 5 MPH (4 KT) (direction variable):0
Visibility: greater than 7 mile(s):0
Temperature: 77 F (25 C)
Dew Point: 66 F (19 C)
Relative Humidity: 69%
Pressure (altimeter): 29.94 in. Hg (1014 hPa)
ob: LEVX 251800Z 04004KT 010V100 CAVOK 25/19 Q1014 NOSIG
cycle: 18

Station Type Date Time Source
LEVX TAF 2019/08/25 18:27 UTC NOAA

TAF TAF LEVX 251700Z 2518/2618 VRB03KT CAVOK TX26/2614Z TN17/2606Z PROB40
TEMPO 2518/2524 SCT030TCU PROB40
TEMPO 2609/2618 3000 SHRA TS SCT030TCU SCT040CB
TEMPO 2612/2618 27010KT

Example: see airport list